createdAt,value
2023-05-23T00:00:19.792Z,100288.14
2023-05-23T00:03:09.558Z,100294.23
2023-05-23T00:05:38.766Z,100291.64
2023-05-23T00:08:08.311Z,100294.49
2023-05-23T00:10:37.285Z,100292.52
2023-05-23T00:13:09.688Z,100290.91
2023-05-23T00:15:42.053Z,100287.05
2023-05-23T00:18:11.823Z,100292.44
2023-05-23T00:20:44.507Z,100289.70
2023-05-23T00:23:19.339Z,100287.29
2023-05-23T00:25:53.228Z,100287.64
2023-05-23T00:28:22.825Z,100284.30
2023-05-23T00:30:52.147Z,100279.29
2023-05-23T00:33:22.468Z,100280.58
2023-05-23T00:35:51.632Z,100280.03
2023-05-23T00:38:20.721Z,100281.16
2023-05-23T00:40:50.042Z,100280.02
2023-05-23T00:43:21.408Z,100277.41
2023-05-23T00:45:50.560Z,100274.67
2023-05-23T00:48:20.060Z,100274.09
2023-05-23T00:50:49.299Z,100271.30
2023-05-23T00:53:18.709Z,100271.30
2023-05-23T00:55:48.090Z,100270.77
2023-05-23T00:58:17.962Z,100272.46
2023-05-23T01:00:47.793Z,100272.69
2023-05-23T01:03:18.367Z,100276.15
2023-05-23T01:05:48.035Z,100276.48
2023-05-23T01:08:17.030Z,100283.17
2023-05-23T01:10:46.330Z,100280.70
2023-05-23T01:13:40.659Z,100283.54
2023-05-23T01:16:22.126Z,100284.15
2023-05-23T01:18:58.615Z,100283.55
2023-05-23T01:21:28.374Z,100284.36
2023-05-23T01:24:27.274Z,100285.40
2023-05-23T01:27:31.089Z,100284.42
2023-05-23T01:30:02.366Z,100282.08
2023-05-23T01:32:32.482Z,100281.27
2023-05-23T01:35:01.759Z,100287.98
2023-05-23T01:37:30.854Z,100290.02
2023-05-23T01:40:00.172Z,100287.50
2023-05-23T01:42:29.347Z,100291.69
2023-05-23T01:44:59.882Z,100289.12
2023-05-23T01:47:29.367Z,100286.92
2023-05-23T01:50:00.434Z,100286.72
2023-05-23T01:52:29.800Z,100281.63
2023-05-23T01:54:59.868Z,100281.64
2023-05-23T01:57:31.055Z,100284.94
2023-05-23T02:00:01.151Z,100283.29
2023-05-23T02:02:30.415Z,100280.11
2023-05-23T02:05:00.244Z,100277.48
2023-05-23T02:07:29.245Z,100276.17
2023-05-23T02:09:58.218Z,100272.86
2023-05-23T02:12:27.516Z,100275.83
2023-05-23T02:14:57.223Z,100276.77
2023-05-23T02:17:26.572Z,100276.20
2023-05-23T02:19:56.919Z,100277.12
2023-05-23T02:22:26.174Z,100273.48
2023-05-23T02:24:55.667Z,100275.06
2023-05-23T02:27:24.857Z,100273.74
2023-05-23T02:29:54.051Z,100273.58
2023-05-23T02:32:23.234Z,100273.17
2023-05-23T02:34:52.930Z,100271.86
2023-05-23T02:37:23.283Z,100274.10
2023-05-23T02:39:52.460Z,100274.54
2023-05-23T02:42:21.791Z,100274.97
2023-05-23T02:44:51.392Z,100279.80
2023-05-23T02:47:20.913Z,100279.75
2023-05-23T02:49:51.003Z,100278.64
2023-05-23T02:52:19.909Z,100282.05
2023-05-23T02:54:49.206Z,100284.48
2023-05-23T02:57:18.469Z,100285.31
2023-05-23T02:59:47.511Z,100282.46
2023-05-23T03:02:16.838Z,100276.21
2023-05-23T03:04:46.719Z,100277.09
2023-05-23T03:07:27.525Z,100280.45
2023-05-23T03:09:57.928Z,100284.35
2023-05-23T03:12:29.371Z,100280.63
2023-05-23T03:14:58.595Z,100279.81
2023-05-23T03:17:27.976Z,100280.58
2023-05-23T03:19:59.426Z,100279.76
2023-05-23T03:22:28.515Z,100279.02
2023-05-23T03:24:57.396Z,100279.80
2023-05-23T03:27:26.917Z,100276.77
2023-05-23T03:29:55.949Z,100284.11
2023-05-23T03:32:25.170Z,100287.00
2023-05-23T03:34:54.616Z,100287.16
2023-05-23T03:37:23.608Z,100287.19
2023-05-23T03:39:53.312Z,100291.84
2023-05-23T03:42:22.586Z,100289.93
2023-05-23T03:44:51.531Z,100297.42
2023-05-23T03:47:21.516Z,100304.74
2023-05-23T03:49:51.134Z,100307.00
2023-05-23T03:52:20.604Z,100309.08
2023-05-23T03:54:49.736Z,100317.83
2023-05-23T03:57:18.848Z,100322.59
2023-05-23T03:59:48.638Z,100322.98
2023-05-23T04:02:17.766Z,100325.95
2023-05-23T04:04:47.364Z,100329.13
2023-05-23T04:07:16.808Z,100334.46
2023-05-23T04:09:46.486Z,100336.83
2023-05-23T04:12:16.679Z,100342.91
2023-05-23T04:14:48.742Z,100345.55
2023-05-23T04:17:18.818Z,100346.34
2023-05-23T04:19:48.569Z,100344.54
2023-05-23T04:22:18.204Z,100349.16
2023-05-23T04:24:49.531Z,100346.08
2023-05-23T04:27:19.041Z,100346.48
2023-05-23T04:29:48.646Z,100348.10
2023-05-23T04:32:19.791Z,100350.55
2023-05-23T04:34:49.848Z,100355.16
2023-05-23T04:37:26.357Z,100361.63
2023-05-23T04:39:56.803Z,100359.88
2023-05-23T04:42:48.742Z,100363.66
2023-05-23T04:45:34.325Z,100365.55
2023-05-23T04:48:17.496Z,100367.40
2023-05-23T04:50:49.102Z,100367.69
2023-05-23T04:53:20.044Z,100367.47
2023-05-23T04:55:49.645Z,100370.50
2023-05-23T04:58:20.386Z,100368.50
2023-05-23T05:00:50.017Z,100364.83
2023-05-23T05:03:20.222Z,100371.27
2023-05-23T05:05:50.127Z,100373.20
2023-05-23T05:08:20.262Z,100374.50
2023-05-23T05:10:49.748Z,100370.23
2023-05-23T05:13:20.908Z,100372.95
2023-05-23T05:15:55.176Z,100372.44
2023-05-23T05:18:28.923Z,100375.20
2023-05-23T05:20:59.654Z,100377.53
2023-05-23T05:23:29.022Z,100376.34
2023-05-23T05:25:58.561Z,100374.35
2023-05-23T05:28:27.868Z,100369.33
2023-05-23T05:30:57.294Z,100371.96
2023-05-23T05:33:28.546Z,100372.61
2023-05-23T05:36:10.310Z,100373.95
2023-05-23T05:38:39.411Z,100371.88
2023-05-23T05:41:09.407Z,100369.72
2023-05-23T05:43:42.816Z,100367.54
2023-05-23T05:46:12.358Z,100370.56
2023-05-23T05:48:41.426Z,100372.67
2023-05-23T05:51:13.688Z,100368.42
2023-05-23T05:53:44.009Z,100369.71
2023-05-23T05:56:16.753Z,100371.83
2023-05-23T05:58:46.224Z,100372.37
2023-05-23T06:01:17.818Z,100371.85
2023-05-23T06:03:47.292Z,100373.88
2023-05-23T06:06:16.914Z,100376.98
2023-05-23T06:08:47.683Z,100372.91
2023-05-23T06:11:18.740Z,100371.88
2023-05-23T06:13:47.854Z,100372.58
2023-05-23T06:16:17.499Z,100366.40
2023-05-23T06:18:46.980Z,100368.48
2023-05-23T06:21:16.269Z,100367.84
2023-05-23T06:23:46.182Z,100371.29
2023-05-23T06:26:15.674Z,100370.38
2023-05-23T06:28:44.981Z,100373.59
2023-05-23T06:31:14.672Z,100375.27
2023-05-23T06:33:43.878Z,100366.29
2023-05-23T06:36:12.985Z,100366.12
2023-05-23T06:38:42.288Z,100368.52
2023-05-23T06:41:11.537Z,100370.73
2023-05-23T06:43:40.673Z,100365.65
2023-05-23T06:46:18.243Z,100362.64
2023-05-23T06:48:47.329Z,100360.41
2023-05-23T06:51:16.987Z,100361.11
2023-05-23T06:53:46.814Z,100358.35
2023-05-23T06:56:15.884Z,100352.15
2023-05-23T06:58:53.731Z,100352.46
2023-05-23T07:01:22.958Z,100344.96
2023-05-23T07:03:53.723Z,100346.17
2023-05-23T07:06:23.082Z,100339.31
2023-05-23T07:08:52.762Z,100340.58
2023-05-23T07:11:23.478Z,100335.17
2023-05-23T07:13:59.223Z,100336.30
2023-05-23T07:16:37.259Z,100329.77
2023-05-23T07:19:08.820Z,100332.61
2023-05-23T07:21:47.091Z,100332.45
2023-05-23T07:24:18.436Z,100330.80
2023-05-23T07:26:47.579Z,100329.75
2023-05-23T07:29:17.049Z,100331.59
2023-05-23T07:31:47.881Z,100331.71
2023-05-23T07:34:17.173Z,100329.47
2023-05-23T07:36:55.597Z,100329.24
2023-05-23T07:39:27.905Z,100324.35
2023-05-23T07:41:57.595Z,100325.34
2023-05-23T07:44:26.982Z,100326.19
2023-05-23T07:46:56.682Z,100326.45
2023-05-23T07:49:26.930Z,100330.23
2023-05-23T07:51:56.300Z,100329.14
2023-05-23T07:54:25.813Z,100334.06
2023-05-23T07:56:57.776Z,100328.16
2023-05-23T07:59:27.426Z,100335.33
2023-05-23T08:01:57.024Z,100332.90
2023-05-23T08:04:28.474Z,100334.52
2023-05-23T08:07:04.850Z,100333.41
2023-05-23T08:09:55.232Z,100328.91
2023-05-23T08:12:24.915Z,100323.70
2023-05-23T08:15:00.716Z,100321.33
2023-05-23T08:17:37.856Z,100319.00
2023-05-23T08:20:09.002Z,100322.99
2023-05-23T08:22:38.303Z,100324.60
2023-05-23T08:25:08.363Z,100321.52
2023-05-23T08:27:38.857Z,100321.40
2023-05-23T08:30:16.255Z,100321.46
2023-05-23T08:32:45.503Z,100318.38
2023-05-23T08:35:14.853Z,100322.42
2023-05-23T08:37:46.337Z,100316.02
2023-05-23T08:40:20.866Z,100310.68
2023-05-23T08:42:58.111Z,100310.02
2023-05-23T08:45:30.619Z,100313.70
2023-05-23T08:48:01.767Z,100314.27
2023-05-23T08:50:32.137Z,100314.66
2023-05-23T08:53:02.417Z,100318.26
2023-05-23T08:55:32.549Z,100315.25
2023-05-23T08:58:03.753Z,100314.25
2023-05-23T09:00:52.466Z,100315.70
2023-05-23T09:03:23.431Z,100315.41
2023-05-23T09:06:00.663Z,100312.09
2023-05-23T09:08:30.420Z,100309.96
2023-05-23T09:11:03.088Z,100313.36
2023-05-23T09:13:33.466Z,100309.70
2023-05-23T09:16:11.199Z,100307.83
2023-05-23T09:18:45.247Z,100301.24
2023-05-23T09:21:16.937Z,100296.74
2023-05-23T09:24:08.932Z,100303.02
2023-05-23T09:26:39.047Z,100301.61
2023-05-23T09:29:08.623Z,100301.35
2023-05-23T09:31:38.268Z,100298.79
2023-05-23T09:34:11.002Z,100291.73
2023-05-23T09:36:44.302Z,100289.48
2023-05-23T09:39:13.558Z,100288.80
2023-05-23T09:41:43.161Z,100294.09
2023-05-23T09:44:12.658Z,100293.66
2023-05-23T09:46:42.117Z,100287.63
2023-05-23T09:49:17.453Z,100286.23
2023-05-23T09:51:58.295Z,100285.60
2023-05-23T09:54:27.582Z,100286.84
2023-05-23T09:57:01.464Z,100283.42
2023-05-23T09:59:34.237Z,100284.25
2023-05-23T10:02:06.877Z,100282.56
2023-05-23T10:04:37.451Z,100285.87
2023-05-23T10:07:22.522Z,100282.10
2023-05-23T10:10:00.822Z,100278.45
2023-05-23T10:12:33.063Z,100281.90
2023-05-23T10:15:07.848Z,100279.39
2023-05-23T10:17:41.932Z,100275.84
2023-05-23T10:20:15.198Z,100274.55
2023-05-23T10:22:44.345Z,100270.14
2023-05-23T10:25:13.907Z,100273.45
2023-05-23T10:27:43.393Z,100272.28
2023-05-23T10:30:13.160Z,100267.67
2023-05-23T10:32:42.954Z,100265.83
2023-05-23T10:35:32.607Z,100261.79
2023-05-23T10:38:17.040Z,100262.59
2023-05-23T10:40:51.848Z,100257.34
2023-05-23T10:43:37.144Z,100258.80
2023-05-23T10:46:09.334Z,100257.10
2023-05-23T10:48:43.157Z,100251.92
2023-05-23T10:51:14.779Z,100252.09
2023-05-23T10:53:45.710Z,100250.63
2023-05-23T10:56:24.851Z,100246.14
2023-05-23T10:58:58.748Z,100248.14
2023-05-23T11:01:27.964Z,100251.21
2023-05-23T11:03:57.139Z,100250.38
2023-05-23T11:06:39.218Z,100247.04
2023-05-23T11:09:13.485Z,100244.05
2023-05-23T11:11:54.703Z,100240.02
2023-05-23T11:14:37.992Z,100234.51
2023-05-23T11:17:13.256Z,100240.55
2023-05-23T11:20:07.679Z,100238.78
2023-05-23T11:22:37.022Z,100231.13
2023-05-23T11:25:10.494Z,100224.13
2023-05-23T11:27:41.663Z,100222.28
2023-05-23T11:30:14.305Z,100228.17
2023-05-23T11:32:53.476Z,100225.30
2023-05-23T11:35:22.731Z,100226.70
2023-05-23T11:37:51.651Z,100222.09
2023-05-23T11:40:31.964Z,100221.15
2023-05-23T11:43:06.639Z,100219.77
2023-05-23T11:45:37.576Z,100217.56
2023-05-23T11:48:13.825Z,100214.58
2023-05-23T11:50:48.285Z,100215.59
2023-05-23T11:53:20.775Z,100213.20
2023-05-23T11:55:53.365Z,100206.48
2023-05-23T11:58:37.475Z,100207.62
2023-05-23T12:01:10.918Z,100205.55
2023-05-23T12:03:51.417Z,100204.89
2023-05-23T12:06:22.052Z,100204.57
2023-05-23T12:08:54.322Z,100202.55
2023-05-23T12:11:24.954Z,100196.14
2023-05-23T12:13:54.464Z,100202.17
2023-05-23T12:16:24.255Z,100193.59
2023-05-23T12:18:53.807Z,100194.88
2023-05-23T12:21:25.749Z,100197.77
2023-05-23T12:23:55.144Z,100192.77
2023-05-23T12:26:24.799Z,100186.23
2023-05-23T12:28:53.953Z,100192.02
2023-05-23T12:31:23.223Z,100182.86
2023-05-23T12:33:53.614Z,100182.68
2023-05-23T12:36:27.508Z,100179.73
2023-05-23T12:39:04.796Z,100180.72
2023-05-23T12:41:34.119Z,100183.00
2023-05-23T12:44:05.028Z,100184.47
2023-05-23T12:46:34.160Z,100180.46
2023-05-23T12:49:04.031Z,100182.27
2023-05-23T12:51:33.236Z,100180.98
2023-05-23T12:54:02.490Z,100180.51
2023-05-23T12:56:31.872Z,100181.58
2023-05-23T12:59:02.249Z,100177.85
2023-05-23T13:01:31.573Z,100178.49
2023-05-23T13:04:03.435Z,100171.98
2023-05-23T13:06:33.662Z,100167.69
2023-05-23T13:09:03.981Z,100161.95
2023-05-23T13:11:32.991Z,100165.34
2023-05-23T13:14:02.768Z,100165.21
2023-05-23T13:16:32.421Z,100161.00
2023-05-23T13:19:01.505Z,100161.12
2023-05-23T13:21:31.902Z,100160.61
2023-05-23T13:24:01.026Z,100164.31
2023-05-23T13:26:30.436Z,100162.15
2023-05-23T13:28:59.495Z,100156.23
2023-05-23T13:31:28.459Z,100157.63
2023-05-23T13:33:57.583Z,100160.23
2023-05-23T13:36:26.988Z,100163.94
2023-05-23T13:38:56.192Z,100162.13
2023-05-23T13:41:25.973Z,100169.34
2023-05-23T13:43:55.081Z,100165.72
2023-05-23T13:46:24.112Z,100165.10
2023-05-23T13:48:53.596Z,100173.33
2023-05-23T13:51:22.998Z,100173.83
2023-05-23T13:53:52.554Z,100175.25
2023-05-23T13:56:22.113Z,100178.45
2023-05-23T13:58:51.287Z,100182.21
2023-05-23T14:01:21.120Z,100184.27
2023-05-23T14:03:50.835Z,100188.48
2023-05-23T14:06:20.031Z,100184.31
2023-05-23T14:08:49.327Z,100192.05
2023-05-23T14:11:18.362Z,100195.20
2023-05-23T14:13:47.299Z,100194.02
2023-05-23T14:16:16.222Z,100203.84
2023-05-23T14:18:45.914Z,100214.30
2023-05-23T14:21:15.217Z,100224.74
2023-05-23T14:23:44.719Z,100230.41
2023-05-23T14:26:14.336Z,100232.44
2023-05-23T14:28:43.433Z,100228.26
2023-05-23T14:31:12.550Z,100220.47
2023-05-23T14:33:41.930Z,100217.30
2023-05-23T14:36:11.567Z,100219.16
2023-05-23T14:38:42.070Z,100217.66
2023-05-23T14:41:14.043Z,100215.89
2023-05-23T14:43:43.186Z,100215.85
2023-05-23T14:46:12.470Z,100214.73
2023-05-23T14:48:43.280Z,100213.73
2023-05-23T14:51:18.210Z,100214.38
2023-05-23T14:53:57.358Z,100210.34
2023-05-23T14:56:27.350Z,100208.10
2023-05-23T14:58:57.679Z,100206.52
2023-05-23T15:01:27.322Z,100203.91
2023-05-23T15:03:56.604Z,100201.13
2023-05-23T15:06:25.979Z,100194.14
2023-05-23T15:08:55.080Z,100190.52
2023-05-23T15:11:26.681Z,100182.08
2023-05-23T15:13:56.650Z,100180.45
2023-05-23T15:16:25.846Z,100174.64
2023-05-23T15:18:54.875Z,100176.02
2023-05-23T15:21:24.038Z,100171.61
2023-05-23T15:23:53.691Z,100172.52
2023-05-23T15:26:24.076Z,100170.31
2023-05-23T15:28:53.087Z,100171.01
2023-05-23T15:31:22.356Z,100162.23
2023-05-23T15:33:51.592Z,100160.64
2023-05-23T15:36:20.614Z,100160.29
2023-05-23T15:38:49.775Z,100158.87
2023-05-23T15:41:18.931Z,100160.08
2023-05-23T15:43:48.170Z,100153.61
2023-05-23T15:46:17.614Z,100145.73
2023-05-23T15:48:46.964Z,100148.34
2023-05-23T15:51:16.623Z,100147.47
2023-05-23T15:53:59.830Z,100145.91
2023-05-23T15:56:30.025Z,100144.16
2023-05-23T15:59:00.105Z,100144.97
2023-05-23T16:01:29.606Z,100139.00
2023-05-23T16:03:58.995Z,100132.45
2023-05-23T16:06:28.477Z,100126.34
2023-05-23T16:08:57.546Z,100122.95
2023-05-23T16:11:26.917Z,100118.87
2023-05-23T16:13:56.468Z,100111.90
2023-05-23T16:16:26.348Z,100113.54
2023-05-23T16:18:55.956Z,100114.17
2023-05-23T16:21:25.280Z,100114.66
2023-05-23T16:23:54.269Z,100117.07
2023-05-23T16:26:23.465Z,100112.53
2023-05-23T16:28:52.789Z,100115.62
2023-05-23T16:31:27.578Z,100115.70
2023-05-23T16:33:57.671Z,100122.25
2023-05-23T16:36:27.551Z,100128.05
2023-05-23T16:38:56.552Z,100127.46
2023-05-23T16:41:25.809Z,100128.17
2023-05-23T16:43:54.921Z,100133.40
2023-05-23T16:46:24.068Z,100133.96
2023-05-23T16:48:54.045Z,100139.70
2023-05-23T16:51:23.236Z,100145.38
2023-05-23T16:53:52.538Z,100149.81
2023-05-23T16:56:21.836Z,100153.73
2023-05-23T16:58:51.346Z,100155.38
2023-05-23T17:01:20.705Z,100157.61
2023-05-23T17:03:49.899Z,100159.25
2023-05-23T17:06:19.012Z,100157.52
2023-05-23T17:08:48.345Z,100159.48
2023-05-23T17:11:18.156Z,100168.05
2023-05-23T17:13:47.520Z,100164.58
2023-05-23T17:16:20.498Z,100167.12
2023-05-23T17:18:50.414Z,100165.26
2023-05-23T17:21:19.653Z,100169.36
2023-05-23T17:23:49.159Z,100169.94
2023-05-23T17:26:19.726Z,100168.98
2023-05-23T17:28:49.045Z,100169.01
2023-05-23T17:31:18.542Z,100175.38
2023-05-23T17:33:47.624Z,100175.56
2023-05-23T17:36:16.789Z,100181.89
2023-05-23T17:38:45.802Z,100186.80
2023-05-23T17:41:15.949Z,100183.99
2023-05-23T17:43:44.900Z,100187.55
2023-05-23T17:46:14.146Z,100187.06
2023-05-23T17:48:47.554Z,100189.27
2023-05-23T17:51:17.112Z,100189.29
2023-05-23T17:53:46.509Z,100189.47
2023-05-23T17:56:15.840Z,100191.61
2023-05-23T17:58:44.809Z,100189.80
2023-05-23T18:01:15.262Z,100193.11
2023-05-23T18:03:45.002Z,100194.80
2023-05-23T18:06:14.032Z,100198.73
2023-05-23T18:08:43.147Z,100201.83
2023-05-23T18:11:12.361Z,100207.37
2023-05-23T18:13:41.651Z,100211.96
2023-05-23T18:16:10.826Z,100216.82
2023-05-23T18:18:40.653Z,100223.59
2023-05-23T18:21:09.735Z,100225.22
2023-05-23T18:23:38.834Z,100225.92
2023-05-23T18:26:09.181Z,100233.14
2023-05-23T18:28:38.376Z,100238.63
2023-05-23T18:31:07.778Z,100240.39
2023-05-23T18:33:37.384Z,100244.99
2023-05-23T18:36:07.325Z,100245.95
2023-05-23T18:38:36.437Z,100256.69
2023-05-23T18:41:05.676Z,100254.30
2023-05-23T18:43:34.802Z,100258.30
2023-05-23T18:46:05.229Z,100260.12
2023-05-23T18:48:35.755Z,100257.92
2023-05-23T18:51:05.648Z,100258.38
2023-05-23T18:53:34.739Z,100256.27
2023-05-23T18:56:04.252Z,100252.90
2023-05-23T18:58:33.371Z,100256.19
2023-05-23T19:01:04.082Z,100254.33
2023-05-23T19:03:37.365Z,100254.46
2023-05-23T19:06:07.423Z,100254.91
2023-05-23T19:08:36.931Z,100258.66
2023-05-23T19:11:06.195Z,100263.94
2023-05-23T19:13:35.106Z,100268.73
2023-05-23T19:16:04.932Z,100270.89
2023-05-23T19:18:34.302Z,100277.28
2023-05-23T19:21:04.253Z,100275.20
2023-05-23T19:23:33.623Z,100278.07
2023-05-23T19:26:02.818Z,100287.07
2023-05-23T19:28:31.909Z,100285.95
2023-05-23T19:31:01.626Z,100288.73
2023-05-23T19:33:30.620Z,100287.70
2023-05-23T19:35:59.494Z,100283.93
2023-05-23T19:38:28.607Z,100283.25
2023-05-23T19:40:58.217Z,100280.55
2023-05-23T19:43:27.731Z,100279.27
2023-05-23T19:45:57.273Z,100279.30
2023-05-23T19:48:26.840Z,100278.48
2023-05-23T19:50:56.038Z,100277.98
2023-05-23T19:53:24.984Z,100278.73
2023-05-23T19:55:54.119Z,100275.85
2023-05-23T19:58:23.322Z,100278.55
2023-05-23T20:00:52.719Z,100275.99
2023-05-23T20:03:21.758Z,100277.84
2023-05-23T20:05:51.527Z,100280.17
2023-05-23T20:08:20.769Z,100284.32
2023-05-23T20:10:50.108Z,100286.56
2023-05-23T20:13:19.225Z,100287.83
2023-05-23T20:15:49.273Z,100284.84
2023-05-23T20:18:18.411Z,100282.35
2023-05-23T20:20:47.552Z,100281.24
2023-05-23T20:23:16.680Z,100284.01
2023-05-23T20:25:45.640Z,100285.17
2023-05-23T20:28:15.035Z,100287.16
2023-05-23T20:30:44.455Z,100283.89
2023-05-23T20:33:15.694Z,100284.06
2023-05-23T20:35:48.471Z,100285.09
2023-05-23T20:38:20.087Z,100281.16
2023-05-23T20:40:51.491Z,100282.39
2023-05-23T20:43:22.672Z,100284.61
2023-05-23T20:45:51.859Z,100285.58
2023-05-23T20:48:20.838Z,100287.67
2023-05-23T20:50:50.033Z,100287.61
2023-05-23T20:53:19.202Z,100296.23
2023-05-23T20:55:49.071Z,100293.38
2023-05-23T20:58:18.581Z,100289.61
2023-05-23T21:00:47.848Z,100289.86
2023-05-23T21:03:17.964Z,100288.03
2023-05-23T21:05:46.939Z,100290.16
2023-05-23T21:08:16.284Z,100287.88
2023-05-23T21:10:49.815Z,100289.90
2023-05-23T21:13:20.881Z,100292.63
2023-05-23T21:15:50.475Z,100295.35
2023-05-23T21:18:19.584Z,100298.06
2023-05-23T21:20:50.672Z,100300.48
2023-05-23T21:23:19.926Z,100303.08
2023-05-23T21:25:49.326Z,100305.99
2023-05-23T21:28:18.452Z,100304.17
2023-05-23T21:30:47.765Z,100309.20
2023-05-23T21:33:17.434Z,100307.14
2023-05-23T21:35:46.430Z,100307.08
2023-05-23T21:38:18.797Z,100306.89
2023-05-23T21:40:48.100Z,100304.55
2023-05-23T21:43:17.399Z,100311.30
2023-05-23T21:45:46.593Z,100315.87
2023-05-23T21:48:15.651Z,100317.61
2023-05-23T21:50:45.201Z,100314.52
2023-05-23T21:53:14.375Z,100313.98
2023-05-23T21:55:43.596Z,100314.20
2023-05-23T21:58:12.644Z,100311.91
2023-05-23T22:00:43.588Z,100311.36
2023-05-23T22:03:12.922Z,100308.68
2023-05-23T22:05:42.380Z,100308.05
2023-05-23T22:08:11.855Z,100304.79
2023-05-23T22:10:41.300Z,100302.05
2023-05-23T22:13:10.615Z,100300.41
2023-05-23T22:15:39.644Z,100297.84
2023-05-23T22:18:08.639Z,100300.06
2023-05-23T22:20:39.348Z,100301.67
2023-05-23T22:23:10.042Z,100298.48
2023-05-23T22:25:39.192Z,100294.80
2023-05-23T22:28:08.425Z,100292.27
2023-05-23T22:30:37.937Z,100290.72
2023-05-23T22:33:12.994Z,100291.56
2023-05-23T22:35:42.957Z,100290.36
2023-05-23T22:38:11.951Z,100292.23
2023-05-23T22:40:41.589Z,100291.09
2023-05-23T22:43:11.028Z,100291.98
2023-05-23T22:45:42.723Z,100285.36
2023-05-23T22:48:12.059Z,100287.78
2023-05-23T22:50:41.079Z,100286.83
2023-05-23T22:53:11.736Z,100282.31
2023-05-23T22:55:41.005Z,100285.16
2023-05-23T22:58:10.756Z,100287.02
2023-05-23T23:00:39.641Z,100284.75
2023-05-23T23:03:09.496Z,100284.05
2023-05-23T23:05:39.071Z,100280.58
2023-05-23T23:08:08.277Z,100278.11
2023-05-23T23:10:37.268Z,100273.77
2023-05-23T23:13:06.566Z,100271.06
2023-05-23T23:15:37.019Z,100262.11
2023-05-23T23:18:07.141Z,100260.36
2023-05-23T23:20:36.839Z,100258.08
2023-05-23T23:23:06.352Z,100254.65
2023-05-23T23:25:36.696Z,100253.73
2023-05-23T23:28:07.270Z,100253.30
2023-05-23T23:30:36.209Z,100254.36
2023-05-23T23:33:05.341Z,100252.64
2023-05-23T23:35:34.673Z,100251.90
2023-05-23T23:38:04.194Z,100251.18
2023-05-23T23:40:33.828Z,100254.69
2023-05-23T23:43:03.188Z,100253.13
2023-05-23T23:45:32.198Z,100255.39
2023-05-23T23:48:01.402Z,100254.77
2023-05-23T23:50:31.915Z,100250.40
2023-05-23T23:53:01.006Z,100250.55
2023-05-23T23:55:30.226Z,100246.26
2023-05-23T23:57:59.341Z,100242.56
